sensor_id;sensor_type;location;lat;lon;timestamp;P1;durP1;ratioP1;P2;durP2;ratioP2
36659;SDS011;22654;51.054;3.654;2022-07-29T00:00:44;6.00;;;2.40;;
36659;SDS011;22654;51.054;3.654;2022-07-29T00:03:11;4.22;;;3.15;;
36659;SDS011;22654;51.054;3.654;2022-07-29T00:05:41;4.50;;;2.70;;
36659;SDS011;22654;51.054;3.654;2022-07-29T00:08:07;9.38;;;3.25;;
36659;SDS011;22654;51.054;3.654;2022-07-29T00:10:33;6.78;;;3.22;;
36659;SDS011;22654;51.054;3.654;2022-07-29T00:12:59;5.50;;;2.85;;
36659;SDS011;22654;51.054;3.654;2022-07-29T00:15:25;7.13;;;3.00;;
36659;SDS011;22654;51.054;3.654;2022-07-29T00:17:51;6.78;;;2.90;;
36659;SDS011;22654;51.054;3.654;2022-07-29T00:20:17;6.13;;;2.90;;
36659;SDS011;22654;51.054;3.654;2022-07-29T00:22:43;4.85;;;2.90;;
36659;SDS011;22654;51.054;3.654;2022-07-29T00:25:10;6.03;;;3.45;;
36659;SDS011;22654;51.054;3.654;2022-07-29T00:27:37;5.82;;;3.05;;
36659;SDS011;22654;51.054;3.654;2022-07-29T00:30:03;6.32;;;3.15;;
36659;SDS011;22654;51.054;3.654;2022-07-29T00:32:30;5.47;;;2.80;;
36659;SDS011;22654;51.054;3.654;2022-07-29T00:34:55;6.85;;;2.95;;
36659;SDS011;22654;51.054;3.654;2022-07-29T00:37:40;7.30;;;3.25;;
36659;SDS011;22654;51.054;3.654;2022-07-29T00:40:05;5.57;;;2.67;;
36659;SDS011;22654;51.054;3.654;2022-07-29T00:42:41;3.70;;;2.70;;
36659;SDS011;22654;51.054;3.654;2022-07-29T00:45:08;4.00;;;2.65;;
36659;SDS011;22654;51.054;3.654;2022-07-29T00:47:34;2.63;;;2.40;;
36659;SDS011;22654;51.054;3.654;2022-07-29T00:50:00;4.82;;;2.80;;
36659;SDS011;22654;51.054;3.654;2022-07-29T00:52:26;5.60;;;3.22;;
36659;SDS011;22654;51.054;3.654;2022-07-29T00:54:52;4.57;;;3.03;;
36659;SDS011;22654;51.054;3.654;2022-07-29T00:57:17;6.95;;;3.33;;
36659;SDS011;22654;51.054;3.654;2022-07-29T00:59:43;8.80;;;3.38;;
36659;SDS011;22654;51.054;3.654;2022-07-29T01:02:09;5.05;;;3.50;;
36659;SDS011;22654;51.054;3.654;2022-07-29T01:04:35;4.10;;;3.05;;
36659;SDS011;22654;51.054;3.654;2022-07-29T01:07:01;12.50;;;3.42;;
36659;SDS011;22654;51.054;3.654;2022-07-29T01:09:34;4.00;;;3.10;;
36659;SDS011;22654;51.054;3.654;2022-07-29T01:12:02;7.78;;;3.30;;
36659;SDS011;22654;51.054;3.654;2022-07-29T01:14:28;4.45;;;3.28;;
36659;SDS011;22654;51.054;3.654;2022-07-29T01:16:58;5.85;;;3.17;;
36659;SDS011;22654;51.054;3.654;2022-07-29T01:22:23;5.90;;;3.85;;
36659;SDS011;22654;51.054;3.654;2022-07-29T01:27:38;5.72;;;3.75;;
36659;SDS011;22654;51.054;3.654;2022-07-29T01:30:04;7.22;;;3.60;;
36659;SDS011;22654;51.054;3.654;2022-07-29T01:32:35;12.98;;;5.65;;
36659;SDS011;22654;51.054;3.654;2022-07-29T01:37:50;6.78;;;4.15;;
36659;SDS011;22654;51.054;3.654;2022-07-29T01:42:54;6.00;;;3.60;;
36659;SDS011;22654;51.054;3.654;2022-07-29T01:45:24;5.75;;;3.70;;
36659;SDS011;22654;51.054;3.654;2022-07-29T01:48:06;7.15;;;3.58;;
36659;SDS011;22654;51.054;3.654;2022-07-29T01:50:49;7.38;;;4.03;;
36659;SDS011;22654;51.054;3.654;2022-07-29T01:53:35;7.18;;;3.60;;
36659;SDS011;22654;51.054;3.654;2022-07-29T01:56:11;3.92;;;3.50;;
36659;SDS011;22654;51.054;3.654;2022-07-29T01:58:40;7.18;;;4.00;;
36659;SDS011;22654;51.054;3.654;2022-07-29T02:01:08;5.75;;;3.42;;
36659;SDS011;22654;51.054;3.654;2022-07-29T02:03:36;5.68;;;2.92;;
36659;SDS011;22654;51.054;3.654;2022-07-29T02:06:06;3.97;;;3.20;;
36659;SDS011;22654;51.054;3.654;2022-07-29T02:08:33;4.10;;;3.20;;
36659;SDS011;22654;51.054;3.654;2022-07-29T02:11:00;6.88;;;3.70;;
36659;SDS011;22654;51.054;3.654;2022-07-29T02:13:28;6.82;;;3.95;;
36659;SDS011;22654;51.054;3.654;2022-07-29T02:15:57;5.40;;;3.20;;
36659;SDS011;22654;51.054;3.654;2022-07-29T02:18:23;4.50;;;3.13;;
36659;SDS011;22654;51.054;3.654;2022-07-29T02:20:53;4.13;;;3.17;;
36659;SDS011;22654;51.054;3.654;2022-07-29T02:23:23;3.63;;;3.27;;
36659;SDS011;22654;51.054;3.654;2022-07-29T02:25:55;10.73;;;4.28;;
36659;SDS011;22654;51.054;3.654;2022-07-29T02:28:22;5.18;;;3.20;;
36659;SDS011;22654;51.054;3.654;2022-07-29T02:30:52;4.03;;;3.33;;
36659;SDS011;22654;51.054;3.654;2022-07-29T02:33:20;4.63;;;3.13;;
36659;SDS011;22654;51.054;3.654;2022-07-29T02:35:48;3.92;;;3.38;;
36659;SDS011;22654;51.054;3.654;2022-07-29T02:38:15;3.80;;;3.50;;
36659;SDS011;22654;51.054;3.654;2022-07-29T02:41:05;7.07;;;3.03;;
36659;SDS011;22654;51.054;3.654;2022-07-29T02:43:36;4.25;;;3.40;;
36659;SDS011;22654;51.054;3.654;2022-07-29T02:46:08;4.30;;;3.33;;
36659;SDS011;22654;51.054;3.654;2022-07-29T02:48:46;5.05;;;3.50;;
36659;SDS011;22654;51.054;3.654;2022-07-29T02:51:27;5.55;;;3.60;;
36659;SDS011;22654;51.054;3.654;2022-07-29T02:53:57;5.25;;;4.07;;
36659;SDS011;22654;51.054;3.654;2022-07-29T02:56:28;4.65;;;3.90;;
36659;SDS011;22654;51.054;3.654;2022-07-29T02:59:04;9.27;;;4.47;;
36659;SDS011;22654;51.054;3.654;2022-07-29T03:01:35;3.92;;;3.63;;
36659;SDS011;22654;51.054;3.654;2022-07-29T03:04:08;5.03;;;3.55;;
36659;SDS011;22654;51.054;3.654;2022-07-29T03:06:36;4.88;;;3.50;;
36659;SDS011;22654;51.054;3.654;2022-07-29T03:09:03;7.88;;;3.97;;
36659;SDS011;22654;51.054;3.654;2022-07-29T03:11:32;3.97;;;3.58;;
36659;SDS011;22654;51.054;3.654;2022-07-29T03:14:02;5.45;;;3.80;;
36659;SDS011;22654;51.054;3.654;2022-07-29T03:16:29;4.10;;;3.70;;
36659;SDS011;22654;51.054;3.654;2022-07-29T03:18:55;9.05;;;4.40;;
36659;SDS011;22654;51.054;3.654;2022-07-29T03:21:21;4.95;;;4.35;;
36659;SDS011;22654;51.054;3.654;2022-07-29T03:23:47;7.88;;;4.68;;
36659;SDS011;22654;51.054;3.654;2022-07-29T03:26:13;6.28;;;4.13;;
36659;SDS011;22654;51.054;3.654;2022-07-29T03:28:39;5.82;;;4.30;;
36659;SDS011;22654;51.054;3.654;2022-07-29T03:31:04;4.32;;;3.97;;
36659;SDS011;22654;51.054;3.654;2022-07-29T03:33:30;4.75;;;3.67;;
36659;SDS011;22654;51.054;3.654;2022-07-29T03:35:56;6.18;;;4.13;;
36659;SDS011;22654;51.054;3.654;2022-07-29T03:38:23;5.35;;;4.45;;
36659;SDS011;22654;51.054;3.654;2022-07-29T03:40:54;8.50;;;4.22;;
36659;SDS011;22654;51.054;3.654;2022-07-29T03:43:23;5.03;;;3.90;;
36659;SDS011;22654;51.054;3.654;2022-07-29T03:45:55;5.25;;;4.13;;
36659;SDS011;22654;51.054;3.654;2022-07-29T03:48:23;5.32;;;4.78;;
36659;SDS011;22654;51.054;3.654;2022-07-29T03:50:50;5.00;;;4.50;;
36659;SDS011;22654;51.054;3.654;2022-07-29T03:53:16;5.20;;;4.03;;
36659;SDS011;22654;51.054;3.654;2022-07-29T03:55:48;4.95;;;4.30;;
36659;SDS011;22654;51.054;3.654;2022-07-29T03:58:19;7.65;;;5.13;;
36659;SDS011;22654;51.054;3.654;2022-07-29T04:00:46;10.02;;;5.95;;
36659;SDS011;22654;51.054;3.654;2022-07-29T04:03:13;6.47;;;4.65;;
36659;SDS011;22654;51.054;3.654;2022-07-29T04:05:39;6.75;;;5.05;;
36659;SDS011;22654;51.054;3.654;2022-07-29T04:08:05;7.93;;;5.07;;
36659;SDS011;22654;51.054;3.654;2022-07-29T04:10:30;4.97;;;4.47;;
36659;SDS011;22654;51.054;3.654;2022-07-29T04:12:57;8.07;;;4.60;;
36659;SDS011;22654;51.054;3.654;2022-07-29T04:15:23;7.47;;;4.40;;
36659;SDS011;22654;51.054;3.654;2022-07-29T04:17:49;7.72;;;5.45;;
36659;SDS011;22654;51.054;3.654;2022-07-29T04:20:15;8.75;;;6.00;;
36659;SDS011;22654;51.054;3.654;2022-07-29T04:22:41;7.45;;;5.40;;
36659;SDS011;22654;51.054;3.654;2022-07-29T04:25:07;7.10;;;5.75;;
36659;SDS011;22654;51.054;3.654;2022-07-29T04:27:33;7.25;;;5.13;;
36659;SDS011;22654;51.054;3.654;2022-07-29T04:29:59;9.40;;;5.63;;
36659;SDS011;22654;51.054;3.654;2022-07-29T04:32:25;8.50;;;5.50;;
36659;SDS011;22654;51.054;3.654;2022-07-29T04:34:51;8.88;;;6.25;;
36659;SDS011;22654;51.054;3.654;2022-07-29T04:37:18;8.70;;;5.28;;
36659;SDS011;22654;51.054;3.654;2022-07-29T04:39:44;5.32;;;4.63;;
36659;SDS011;22654;51.054;3.654;2022-07-29T04:42:10;6.82;;;5.03;;
36659;SDS011;22654;51.054;3.654;2022-07-29T04:44:35;5.22;;;4.72;;
36659;SDS011;22654;51.054;3.654;2022-07-29T04:47:01;6.10;;;5.30;;
36659;SDS011;22654;51.054;3.654;2022-07-29T04:49:27;5.55;;;4.55;;
36659;SDS011;22654;51.054;3.654;2022-07-29T04:51:53;6.40;;;5.18;;
36659;SDS011;22654;51.054;3.654;2022-07-29T04:54:19;5.40;;;4.57;;
36659;SDS011;22654;51.054;3.654;2022-07-29T04:56:44;5.70;;;4.57;;
36659;SDS011;22654;51.054;3.654;2022-07-29T04:59:11;4.70;;;4.30;;
36659;SDS011;22654;51.054;3.654;2022-07-29T05:01:37;6.78;;;4.82;;
36659;SDS011;22654;51.054;3.654;2022-07-29T05:04:03;9.18;;;4.78;;
36659;SDS011;22654;51.054;3.654;2022-07-29T05:06:29;8.18;;;5.18;;
36659;SDS011;22654;51.054;3.654;2022-07-29T05:08:54;6.55;;;4.32;;
36659;SDS011;22654;51.054;3.654;2022-07-29T05:11:20;5.38;;;4.18;;
36659;SDS011;22654;51.054;3.654;2022-07-29T05:13:46;4.55;;;4.15;;
36659;SDS011;22654;51.054;3.654;2022-07-29T05:16:12;4.72;;;4.18;;
36659;SDS011;22654;51.054;3.654;2022-07-29T05:18:38;4.97;;;4.05;;
36659;SDS011;22654;51.054;3.654;2022-07-29T05:21:04;4.22;;;3.83;;
36659;SDS011;22654;51.054;3.654;2022-07-29T05:23:30;5.50;;;4.60;;
36659;SDS011;22654;51.054;3.654;2022-07-29T05:25:56;7.95;;;4.45;;
36659;SDS011;22654;51.054;3.654;2022-07-29T05:28:21;5.00;;;4.50;;
36659;SDS011;22654;51.054;3.654;2022-07-29T05:30:47;5.05;;;4.38;;
36659;SDS011;22654;51.054;3.654;2022-07-29T05:33:14;4.30;;;3.90;;
36659;SDS011;22654;51.054;3.654;2022-07-29T05:35:40;6.05;;;3.90;;
36659;SDS011;22654;51.054;3.654;2022-07-29T05:38:06;7.75;;;3.85;;
36659;SDS011;22654;51.054;3.654;2022-07-29T05:40:38;7.90;;;3.80;;
36659;SDS011;22654;51.054;3.654;2022-07-29T05:43:04;4.72;;;3.33;;
36659;SDS011;22654;51.054;3.654;2022-07-29T05:45:29;4.75;;;3.42;;
36659;SDS011;22654;51.054;3.654;2022-07-29T05:47:55;5.15;;;4.00;;
36659;SDS011;22654;51.054;3.654;2022-07-29T05:50:22;5.22;;;3.70;;
36659;SDS011;22654;51.054;3.654;2022-07-29T05:52:48;6.22;;;3.58;;
36659;SDS011;22654;51.054;3.654;2022-07-29T05:55:13;5.97;;;3.50;;
36659;SDS011;22654;51.054;3.654;2022-07-29T05:57:39;3.85;;;3.33;;
36659;SDS011;22654;51.054;3.654;2022-07-29T06:00:08;5.03;;;3.65;;
36659;SDS011;22654;51.054;3.654;2022-07-29T06:02:39;6.95;;;3.08;;
36659;SDS011;22654;51.054;3.654;2022-07-29T06:05:05;4.38;;;3.55;;
36659;SDS011;22654;51.054;3.654;2022-07-29T06:07:31;5.60;;;3.70;;
36659;SDS011;22654;51.054;3.654;2022-07-29T06:09:57;4.72;;;4.03;;
36659;SDS011;22654;51.054;3.654;2022-07-29T06:12:23;4.47;;;3.83;;
36659;SDS011;22654;51.054;3.654;2022-07-29T06:14:49;13.48;;;4.50;;
36659;SDS011;22654;51.054;3.654;2022-07-29T06:17:15;7.40;;;4.00;;
36659;SDS011;22654;51.054;3.654;2022-07-29T06:19:41;5.50;;;3.60;;
36659;SDS011;22654;51.054;3.654;2022-07-29T06:22:07;8.82;;;3.67;;
36659;SDS011;22654;51.054;3.654;2022-07-29T06:24:33;5.68;;;3.50;;
36659;SDS011;22654;51.054;3.654;2022-07-29T06:26:59;5.95;;;2.88;;
36659;SDS011;22654;51.054;3.654;2022-07-29T06:29:27;9.20;;;3.55;;
36659;SDS011;22654;51.054;3.654;2022-07-29T06:31:53;6.63;;;3.20;;
36659;SDS011;22654;51.054;3.654;2022-07-29T06:34:19;5.13;;;2.83;;
36659;SDS011;22654;51.054;3.654;2022-07-29T06:36:46;6.35;;;3.58;;
36659;SDS011;22654;51.054;3.654;2022-07-29T06:39:12;7.00;;;3.78;;
36659;SDS011;22654;51.054;3.654;2022-07-29T06:41:37;5.00;;;3.10;;
36659;SDS011;22654;51.054;3.654;2022-07-29T06:44:08;9.10;;;3.80;;
36659;SDS011;22654;51.054;3.654;2022-07-29T06:46:34;5.97;;;3.00;;
36659;SDS011;22654;51.054;3.654;2022-07-29T06:49:00;5.13;;;3.30;;
36659;SDS011;22654;51.054;3.654;2022-07-29T06:51:27;8.07;;;3.63;;
36659;SDS011;22654;51.054;3.654;2022-07-29T06:53:53;6.80;;;3.75;;
36659;SDS011;22654;51.054;3.654;2022-07-29T06:56:19;8.98;;;4.45;;
36659;SDS011;22654;51.054;3.654;2022-07-29T06:58:45;6.63;;;3.78;;
36659;SDS011;22654;51.054;3.654;2022-07-29T07:01:11;8.10;;;4.35;;
36659;SDS011;22654;51.054;3.654;2022-07-29T07:03:37;8.60;;;4.55;;
36659;SDS011;22654;51.054;3.654;2022-07-29T07:06:04;8.20;;;4.22;;
36659;SDS011;22654;51.054;3.654;2022-07-29T07:08:30;9.13;;;5.05;;
36659;SDS011;22654;51.054;3.654;2022-07-29T07:10:56;11.10;;;5.32;;
36659;SDS011;22654;51.054;3.654;2022-07-29T07:13:22;9.13;;;5.13;;
36659;SDS011;22654;51.054;3.654;2022-07-29T07:15:48;10.98;;;4.13;;
36659;SDS011;22654;51.054;3.654;2022-07-29T07:18:16;8.15;;;3.53;;
36659;SDS011;22654;51.054;3.654;2022-07-29T07:20:42;9.82;;;4.65;;
36659;SDS011;22654;51.054;3.654;2022-07-29T07:23:08;10.73;;;4.43;;
36659;SDS011;22654;51.054;3.654;2022-07-29T07:25:34;10.98;;;4.63;;
36659;SDS011;22654;51.054;3.654;2022-07-29T07:27:59;10.32;;;5.43;;
36659;SDS011;22654;51.054;3.654;2022-07-29T07:30:26;10.63;;;5.05;;
36659;SDS011;22654;51.054;3.654;2022-07-29T07:32:52;9.65;;;4.80;;
36659;SDS011;22654;51.054;3.654;2022-07-29T07:35:18;7.95;;;4.78;;
36659;SDS011;22654;51.054;3.654;2022-07-29T07:37:44;11.52;;;5.47;;
36659;SDS011;22654;51.054;3.654;2022-07-29T07:40:10;11.05;;;5.28;;
36659;SDS011;22654;51.054;3.654;2022-07-29T07:42:37;13.20;;;5.05;;
36659;SDS011;22654;51.054;3.654;2022-07-29T07:45:04;12.68;;;6.03;;
36659;SDS011;22654;51.054;3.654;2022-07-29T07:47:31;9.70;;;5.10;;
36659;SDS011;22654;51.054;3.654;2022-07-29T07:49:57;10.90;;;5.40;;
36659;SDS011;22654;51.054;3.654;2022-07-29T07:52:23;8.20;;;4.95;;
36659;SDS011;22654;51.054;3.654;2022-07-29T07:54:49;8.40;;;5.28;;
36659;SDS011;22654;51.054;3.654;2022-07-29T07:57:15;10.25;;;6.32;;
36659;SDS011;22654;51.054;3.654;2022-07-29T07:59:41;9.48;;;5.65;;
36659;SDS011;22654;51.054;3.654;2022-07-29T08:02:07;10.98;;;5.28;;
36659;SDS011;22654;51.054;3.654;2022-07-29T08:04:34;11.23;;;5.47;;
36659;SDS011;22654;51.054;3.654;2022-07-29T08:07:01;10.48;;;5.47;;
36659;SDS011;22654;51.054;3.654;2022-07-29T08:09:29;9.07;;;5.13;;
36659;SDS011;22654;51.054;3.654;2022-07-29T08:11:55;6.03;;;4.07;;
36659;SDS011;22654;51.054;3.654;2022-07-29T08:14:22;8.55;;;5.03;;
36659;SDS011;22654;51.054;3.654;2022-07-29T08:16:48;7.15;;;4.13;;
36659;SDS011;22654;51.054;3.654;2022-07-29T08:19:14;6.97;;;4.68;;
36659;SDS011;22654;51.054;3.654;2022-07-29T08:21:40;6.70;;;4.43;;
36659;SDS011;22654;51.054;3.654;2022-07-29T08:24:06;7.53;;;4.30;;
36659;SDS011;22654;51.054;3.654;2022-07-29T08:26:50;4.25;;;3.85;;
36659;SDS011;22654;51.054;3.654;2022-07-29T08:29:15;6.82;;;4.85;;
36659;SDS011;22654;51.054;3.654;2022-07-29T08:31:41;6.38;;;4.15;;
36659;SDS011;22654;51.054;3.654;2022-07-29T08:34:07;8.18;;;4.78;;
36659;SDS011;22654;51.054;3.654;2022-07-29T08:36:33;6.68;;;4.25;;
36659;SDS011;22654;51.054;3.654;2022-07-29T08:39:00;13.73;;;4.35;;
36659;SDS011;22654;51.054;3.654;2022-07-29T08:41:26;9.63;;;4.63;;
36659;SDS011;22654;51.054;3.654;2022-07-29T08:43:52;5.40;;;4.95;;
36659;SDS011;22654;51.054;3.654;2022-07-29T08:46:19;5.63;;;4.68;;
36659;SDS011;22654;51.054;3.654;2022-07-29T08:48:46;8.85;;;5.22;;
36659;SDS011;22654;51.054;3.654;2022-07-29T08:51:13;4.53;;;4.07;;
36659;SDS011;22654;51.054;3.654;2022-07-29T08:53:42;5.50;;;4.10;;
36659;SDS011;22654;51.054;3.654;2022-07-29T08:56:12;7.28;;;4.50;;
36659;SDS011;22654;51.054;3.654;2022-07-29T08:58:39;5.90;;;3.08;;
36659;SDS011;22654;51.054;3.654;2022-07-29T09:01:06;4.85;;;3.33;;
36659;SDS011;22654;51.054;3.654;2022-07-29T09:03:34;10.48;;;3.65;;
36659;SDS011;22654;51.054;3.654;2022-07-29T09:06:02;5.68;;;3.58;;
36659;SDS011;22654;51.054;3.654;2022-07-29T09:08:30;5.07;;;3.35;;
36659;SDS011;22654;51.054;3.654;2022-07-29T09:10:56;5.97;;;3.00;;
36659;SDS011;22654;51.054;3.654;2022-07-29T09:13:23;5.88;;;3.40;;
36659;SDS011;22654;51.054;3.654;2022-07-29T09:15:50;5.03;;;3.08;;
36659;SDS011;22654;51.054;3.654;2022-07-29T09:18:35;7.43;;;3.03;;
36659;SDS011;22654;51.054;3.654;2022-07-29T09:21:03;6.85;;;3.35;;
36659;SDS011;22654;51.054;3.654;2022-07-29T09:24:01;3.95;;;3.40;;
36659;SDS011;22654;51.054;3.654;2022-07-29T09:26:35;7.80;;;3.30;;
36659;SDS011;22654;51.054;3.654;2022-07-29T09:31:39;5.53;;;3.22;;
36659;SDS011;22654;51.054;3.654;2022-07-29T09:34:07;7.85;;;4.05;;
36659;SDS011;22654;51.054;3.654;2022-07-29T09:36:41;6.28;;;3.80;;
36659;SDS011;22654;51.054;3.654;2022-07-29T09:39:07;7.53;;;2.90;;
36659;SDS011;22654;51.054;3.654;2022-07-29T09:41:49;3.97;;;2.17;;
36659;SDS011;22654;51.054;3.654;2022-07-29T09:44:20;7.15;;;2.63;;
36659;SDS011;22654;51.054;3.654;2022-07-29T09:47:08;2.95;;;2.40;;
36659;SDS011;22654;51.054;3.654;2022-07-29T09:49:34;8.02;;;3.08;;
36659;SDS011;22654;51.054;3.654;2022-07-29T09:52:05;6.10;;;2.88;;
36659;SDS011;22654;51.054;3.654;2022-07-29T09:54:32;4.35;;;2.95;;
36659;SDS011;22654;51.054;3.654;2022-07-29T09:57:05;5.47;;;2.60;;
36659;SDS011;22654;51.054;3.654;2022-07-29T09:59:34;5.28;;;2.58;;
36659;SDS011;22654;51.054;3.654;2022-07-29T10:01:59;9.73;;;2.45;;
36659;SDS011;22654;51.054;3.654;2022-07-29T10:04:39;4.45;;;2.40;;
36659;SDS011;22654;51.054;3.654;2022-07-29T10:07:05;4.32;;;2.40;;
36659;SDS011;22654;51.054;3.654;2022-07-29T10:09:31;2.47;;;1.73;;
36659;SDS011;22654;51.054;3.654;2022-07-29T10:14:36;3.22;;;1.58;;
36659;SDS011;22654;51.054;3.654;2022-07-29T10:17:04;3.67;;;2.05;;
36659;SDS011;22654;51.054;3.654;2022-07-29T10:19:32;4.43;;;1.48;;
36659;SDS011;22654;51.054;3.654;2022-07-29T10:21:59;6.03;;;2.10;;
36659;SDS011;22654;51.054;3.654;2022-07-29T10:24:27;4.97;;;2.28;;
36659;SDS011;22654;51.054;3.654;2022-07-29T10:26:55;2.75;;;2.50;;
36659;SDS011;22654;51.054;3.654;2022-07-29T10:29:22;4.80;;;1.65;;
36659;SDS011;22654;51.054;3.654;2022-07-29T10:34:50;6.60;;;2.00;;
36659;SDS011;22654;51.054;3.654;2022-07-29T10:40:39;5.45;;;2.13;;
36659;SDS011;22654;51.054;3.654;2022-07-29T10:43:44;6.30;;;1.92;;
36659;SDS011;22654;51.054;3.654;2022-07-29T10:46:13;4.50;;;1.63;;
36659;SDS011;22654;51.054;3.654;2022-07-29T10:59:38;4.88;;;1.75;;
36659;SDS011;22654;51.054;3.654;2022-07-29T11:05:13;5.85;;;1.80;;
36659;SDS011;22654;51.054;3.654;2022-07-29T11:10:39;4.53;;;2.42;;
36659;SDS011;22654;51.054;3.654;2022-07-29T11:13:05;4.38;;;1.70;;
36659;SDS011;22654;51.054;3.654;2022-07-29T11:18:17;2.70;;;1.65;;
36659;SDS011;22654;51.054;3.654;2022-07-29T11:20:44;4.22;;;1.65;;
36659;SDS011;22654;51.054;3.654;2022-07-29T11:23:21;3.88;;;1.98;;
36659;SDS011;22654;51.054;3.654;2022-07-29T11:31:30;4.63;;;1.65;;
36659;SDS011;22654;51.054;3.654;2022-07-29T11:44:53;6.82;;;2.45;;
36659;SDS011;22654;51.054;3.654;2022-07-29T11:47:31;6.05;;;1.67;;
36659;SDS011;22654;51.054;3.654;2022-07-29T11:49:58;5.18;;;1.50;;
36659;SDS011;22654;51.054;3.654;2022-07-29T11:52:35;5.53;;;1.83;;
36659;SDS011;22654;51.054;3.654;2022-07-29T11:55:11;4.15;;;1.52;;
36659;SDS011;22654;51.054;3.654;2022-07-29T11:57:48;3.13;;;2.03;;
36659;SDS011;22654;51.054;3.654;2022-07-29T12:00:21;3.30;;;1.70;;
36659;SDS011;22654;51.054;3.654;2022-07-29T12:02:52;4.90;;;1.73;;
36659;SDS011;22654;51.054;3.654;2022-07-29T12:05:19;3.22;;;1.50;;
36659;SDS011;22654;51.054;3.654;2022-07-29T12:07:46;4.15;;;1.58;;
36659;SDS011;22654;51.054;3.654;2022-07-29T12:10:15;7.93;;;2.20;;
36659;SDS011;22654;51.054;3.654;2022-07-29T12:12:41;10.10;;;1.92;;
36659;SDS011;22654;51.054;3.654;2022-07-29T12:15:10;3.60;;;1.60;;
36659;SDS011;22654;51.054;3.654;2022-07-29T12:17:38;4.20;;;2.60;;
36659;SDS011;22654;51.054;3.654;2022-07-29T12:20:04;2.95;;;1.75;;
36659;SDS011;22654;51.054;3.654;2022-07-29T12:22:35;5.57;;;2.17;;
36659;SDS011;22654;51.054;3.654;2022-07-29T12:27:40;7.60;;;1.77;;
36659;SDS011;22654;51.054;3.654;2022-07-29T12:30:12;6.70;;;2.13;;
36659;SDS011;22654;51.054;3.654;2022-07-29T12:32:41;6.07;;;1.75;;
36659;SDS011;22654;51.054;3.654;2022-07-29T12:35:10;4.88;;;1.95;;
36659;SDS011;22654;51.054;3.654;2022-07-29T12:37:39;6.18;;;1.92;;
36659;SDS011;22654;51.054;3.654;2022-07-29T12:40:07;10.90;;;2.67;;
36659;SDS011;22654;51.054;3.654;2022-07-29T12:42:34;6.03;;;2.30;;
36659;SDS011;22654;51.054;3.654;2022-07-29T12:45:00;4.10;;;2.30;;
36659;SDS011;22654;51.054;3.654;2022-07-29T12:47:27;8.10;;;2.00;;
36659;SDS011;22654;51.054;3.654;2022-07-29T12:50:09;5.45;;;1.52;;
36659;SDS011;22654;51.054;3.654;2022-07-29T12:52:36;3.47;;;1.52;;
36659;SDS011;22654;51.054;3.654;2022-07-29T12:55:02;3.60;;;1.70;;
36659;SDS011;22654;51.054;3.654;2022-07-29T12:57:28;3.55;;;1.88;;
36659;SDS011;22654;51.054;3.654;2022-07-29T12:59:58;4.25;;;1.92;;
36659;SDS011;22654;51.054;3.654;2022-07-29T13:02:28;4.75;;;2.40;;
36659;SDS011;22654;51.054;3.654;2022-07-29T13:05:00;3.97;;;1.80;;
36659;SDS011;22654;51.054;3.654;2022-07-29T13:07:28;5.60;;;1.70;;
36659;SDS011;22654;51.054;3.654;2022-07-29T13:10:09;3.90;;;1.52;;
36659;SDS011;22654;51.054;3.654;2022-07-29T13:12:36;4.95;;;1.75;;
36659;SDS011;22654;51.054;3.654;2022-07-29T13:15:15;4.15;;;1.83;;
36659;SDS011;22654;51.054;3.654;2022-07-29T13:17:42;11.30;;;2.25;;
36659;SDS011;22654;51.054;3.654;2022-07-29T13:20:11;5.45;;;1.80;;
36659;SDS011;22654;51.054;3.654;2022-07-29T13:22:39;4.88;;;2.42;;
36659;SDS011;22654;51.054;3.654;2022-07-29T13:25:07;6.75;;;1.95;;
36659;SDS011;22654;51.054;3.654;2022-07-29T13:27:34;5.05;;;2.03;;
36659;SDS011;22654;51.054;3.654;2022-07-29T13:30:03;5.50;;;1.77;;
36659;SDS011;22654;51.054;3.654;2022-07-29T13:32:31;3.80;;;1.60;;
36659;SDS011;22654;51.054;3.654;2022-07-29T13:35:00;5.78;;;1.70;;
36659;SDS011;22654;51.054;3.654;2022-07-29T13:37:31;6.22;;;1.70;;
36659;SDS011;22654;51.054;3.654;2022-07-29T13:39:59;8.07;;;1.98;;
36659;SDS011;22654;51.054;3.654;2022-07-29T13:42:27;5.28;;;1.60;;
36659;SDS011;22654;51.054;3.654;2022-07-29T13:44:53;5.85;;;2.10;;
36659;SDS011;22654;51.054;3.654;2022-07-29T13:47:20;5.53;;;1.65;;
36659;SDS011;22654;51.054;3.654;2022-07-29T13:49:46;7.65;;;1.85;;
36659;SDS011;22654;51.054;3.654;2022-07-29T13:52:13;4.38;;;1.50;;
36659;SDS011;22654;51.054;3.654;2022-07-29T13:54:39;5.88;;;1.90;;
36659;SDS011;22654;51.054;3.654;2022-07-29T13:57:05;5.53;;;2.10;;
36659;SDS011;22654;51.054;3.654;2022-07-29T13:59:31;3.25;;;1.98;;
36659;SDS011;22654;51.054;3.654;2022-07-29T14:01:57;3.72;;;1.90;;
36659;SDS011;22654;51.054;3.654;2022-07-29T14:04:23;5.55;;;1.92;;
36659;SDS011;22654;51.054;3.654;2022-07-29T14:06:49;5.00;;;2.30;;
36659;SDS011;22654;51.054;3.654;2022-07-29T14:09:15;4.50;;;2.03;;
36659;SDS011;22654;51.054;3.654;2022-07-29T14:11:41;5.93;;;1.40;;
36659;SDS011;22654;51.054;3.654;2022-07-29T14:14:07;7.50;;;2.20;;
36659;SDS011;22654;51.054;3.654;2022-07-29T14:16:33;3.88;;;1.50;;
36659;SDS011;22654;51.054;3.654;2022-07-29T14:18:59;4.07;;;1.60;;
36659;SDS011;22654;51.054;3.654;2022-07-29T14:21:25;5.43;;;1.60;;
36659;SDS011;22654;51.054;3.654;2022-07-29T14:23:50;3.78;;;1.95;;
36659;SDS011;22654;51.054;3.654;2022-07-29T14:26:17;7.88;;;1.75;;
36659;SDS011;22654;51.054;3.654;2022-07-29T14:28:44;6.32;;;1.50;;
36659;SDS011;22654;51.054;3.654;2022-07-29T14:31:09;3.30;;;1.58;;
36659;SDS011;22654;51.054;3.654;2022-07-29T14:36:01;4.13;;;2.03;;
36659;SDS011;22654;51.054;3.654;2022-07-29T14:38:27;4.88;;;1.63;;
36659;SDS011;22654;51.054;3.654;2022-07-29T14:40:53;5.35;;;1.40;;
36659;SDS011;22654;51.054;3.654;2022-07-29T14:43:19;5.32;;;2.35;;
36659;SDS011;22654;51.054;3.654;2022-07-29T14:45:45;4.47;;;1.52;;
36659;SDS011;22654;51.054;3.654;2022-07-29T14:48:10;4.90;;;1.52;;
36659;SDS011;22654;51.054;3.654;2022-07-29T14:50:36;5.30;;;2.08;;
36659;SDS011;22654;51.054;3.654;2022-07-29T14:53:03;4.07;;;1.50;;
36659;SDS011;22654;51.054;3.654;2022-07-29T14:55:29;2.83;;;1.40;;
36659;SDS011;22654;51.054;3.654;2022-07-29T14:57:55;7.68;;;1.90;;
36659;SDS011;22654;51.054;3.654;2022-07-29T15:00:21;4.93;;;1.50;;
36659;SDS011;22654;51.054;3.654;2022-07-29T15:02:47;5.18;;;2.08;;
36659;SDS011;22654;51.054;3.654;2022-07-29T15:05:13;4.43;;;1.45;;
36659;SDS011;22654;51.054;3.654;2022-07-29T15:07:39;10.45;;;1.70;;
36659;SDS011;22654;51.054;3.654;2022-07-29T15:10:08;4.80;;;1.85;;
36659;SDS011;22654;51.054;3.654;2022-07-29T15:12:34;5.47;;;1.60;;
36659;SDS011;22654;51.054;3.654;2022-07-29T15:15:00;2.95;;;1.30;;
36659;SDS011;22654;51.054;3.654;2022-07-29T15:17:26;5.10;;;1.50;;
36659;SDS011;22654;51.054;3.654;2022-07-29T15:19:52;4.38;;;1.80;;
36659;SDS011;22654;51.054;3.654;2022-07-29T15:22:18;5.63;;;1.98;;
36659;SDS011;22654;51.054;3.654;2022-07-29T15:24:43;5.53;;;1.88;;
36659;SDS011;22654;51.054;3.654;2022-07-29T15:27:10;4.18;;;1.67;;
36659;SDS011;22654;51.054;3.654;2022-07-29T15:29:40;5.15;;;1.80;;
36659;SDS011;22654;51.054;3.654;2022-07-29T15:32:06;4.18;;;1.55;;
36659;SDS011;22654;51.054;3.654;2022-07-29T15:34:32;5.35;;;1.90;;
36659;SDS011;22654;51.054;3.654;2022-07-29T15:36:59;4.00;;;1.73;;
36659;SDS011;22654;51.054;3.654;2022-07-29T15:39:24;5.78;;;1.92;;
36659;SDS011;22654;51.054;3.654;2022-07-29T15:41:50;6.65;;;1.60;;
36659;SDS011;22654;51.054;3.654;2022-07-29T15:44:16;6.10;;;1.20;;
36659;SDS011;22654;51.054;3.654;2022-07-29T15:46:42;5.03;;;1.70;;
36659;SDS011;22654;51.054;3.654;2022-07-29T15:49:27;6.35;;;1.70;;
36659;SDS011;22654;51.054;3.654;2022-07-29T15:51:57;5.88;;;1.75;;
36659;SDS011;22654;51.054;3.654;2022-07-29T15:54:28;4.97;;;1.67;;